Time;durP1;ratioP1;P1;durP2;ratioP2;P2;SDS_P1;SDS_P2;PMS_P1;PMS_P2;Temp;Humidity;BMP_temperature;BMP_pressure;BME280_temperature;BME280_humidity;BME280_pressure;Samples;Min_cycle;Max_cycle;Signal;HPM_P1;HPM_P2
2023/03/29 00:00:48;;;;;;;5.50;2.33;;;;;;;-150.27;100.00;61272.81;5214045;28;20036;-75
2023/03/29 00:03:20;;;;;;;7.20;3.17;;;;;;;-150.27;100.00;61272.81;5214240;28;20030;-75
2023/03/29 00:05:56;;;;;;;5.27;2.43;;;;;;;-150.27;100.00;61272.81;5212761;28;20104;-74
2023/03/29 00:08:28;;;;;;;5.00;2.40;;;;;;;-150.27;100.00;61272.81;5219608;28;20486;-75
2023/03/29 00:11:00;;;;;;;6.13;2.80;;;;;;;-150.27;100.00;61272.81;5234376;28;20495;-74
2023/03/29 00:13:31;;;;;;;4.87;2.90;;;;;;;-150.27;100.00;61272.81;5234382;28;20045;-74
2023/03/29 00:16:03;;;;;;;8.37;3.10;;;;;;;-150.27;100.00;61272.81;5234374;28;20047;-75
2023/03/29 00:18:34;;;;;;;5.67;2.87;;;;;;;-150.27;100.00;61272.81;5233130;28;20033;-75
2023/03/29 00:21:07;;;;;;;7.73;3.33;;;;;;;-150.27;100.00;61272.81;5233290;28;20040;-75
2023/03/29 00:23:38;;;;;;;6.57;2.63;;;;;;;-150.27;100.00;61272.81;5234093;28;20119;-76
2023/03/29 00:26:10;;;;;;;6.90;2.53;;;;;;;-150.27;100.00;61272.81;5226873;28;20101;-75
2023/03/29 00:28:42;;;;;;;4.60;2.63;;;;;;;-150.27;100.00;61272.81;5214018;28;20045;-75
2023/03/29 00:31:16;;;;;;;3.97;2.43;;;;;;;-150.27;100.00;61272.81;5212842;28;20041;-75
2023/03/29 00:33:47;;;;;;;4.75;2.50;;;;;;;-150.27;100.00;61272.81;5213523;28;20034;-76
2023/03/29 00:36:18;;;;;;;6.00;3.07;;;;;;;-150.27;100.00;61272.81;5212574;28;20081;-76
2023/03/29 00:38:49;;;;;;;5.53;2.70;;;;;;;-150.27;100.00;61272.81;5224172;28;20025;-76
2023/03/29 00:41:22;;;;;;;5.33;2.40;;;;;;;-150.27;100.00;61272.81;5233756;28;20132;-76
2023/03/29 00:44:00;;;;;;;8.43;3.13;;;;;;;-150.27;100.00;61272.81;5233066;28;20030;-76
2023/03/29 00:46:33;;;;;;;6.10;2.47;;;;;;;-150.27;100.00;61272.81;5233753;28;20028;-76
2023/03/29 00:49:23;;;;;;;5.80;2.77;;;;;;;-150.27;100.00;61272.81;5232794;28;20027;-76
2023/03/29 00:51:54;;;;;;;4.20;2.63;;;;;;;-150.27;100.00;61272.81;5233120;28;20033;-75
2023/03/29 00:54:26;;;;;;;4.17;2.27;;;;;;;-150.27;100.00;61272.81;5227197;28;20087;-76
2023/03/29 00:57:02;;;;;;;3.40;2.03;;;;;;;-150.27;100.00;61272.81;5233489;28;20025;-75
2023/03/29 00:59:34;;;;;;;4.87;2.07;;;;;;;-150.27;100.00;61272.81;5233962;28;20040;-75
2023/03/29 01:02:06;;;;;;;5.47;2.90;;;;;;;-150.27;100.00;61272.81;5233387;28;20108;-76
2023/03/29 01:04:49;;;;;;;6.20;2.80;;;;;;;-150.27;100.00;61272.81;5232260;28;20041;-75
2023/03/29 01:07:27;;;;;;;3.93;2.17;;;;;;;-150.27;100.00;61272.81;5227459;28;20565;-75
2023/03/29 01:10:08;;;;;;;3.20;2.00;;;;;;;-150.27;100.00;61272.81;5213091;28;20103;-76
2023/03/29 01:12:45;;;;;;;5.23;2.53;;;;;;;-150.27;100.00;61272.81;5213547;28;20022;-76
2023/03/29 01:15:21;;;;;;;6.67;2.77;;;;;;;-150.27;100.00;61272.81;5212480;28;20050;-75
2023/03/29 01:17:54;;;;;;;4.60;3.03;;;;;;;-150.27;100.00;61272.81;5212501;28;20041;-74
2023/03/29 01:20:41;;;;;;;6.97;2.83;;;;;;;-150.27;100.00;61272.81;5211924;28;20100;-74
2023/03/29 01:23:42;;;;;;;7.10;2.60;;;;;;;-150.27;100.00;61272.81;5212868;28;20034;-75
2023/03/29 01:26:41;;;;;;;6.80;3.03;;;;;;;-150.27;100.00;61272.81;5212519;28;20017;-75
2023/03/29 01:29:40;;;;;;;3.83;2.13;;;;;;;-150.27;100.00;61272.81;5221631;28;20488;-76
2023/03/29 01:32:43;;;;;;;3.77;1.90;;;;;;;-150.27;100.00;61272.81;5232447;28;20421;-75
2023/03/29 01:35:44;;;;;;;6.00;2.40;;;;;;;-150.27;100.00;61272.81;5231589;28;20033;-75
2023/03/29 01:39:05;;;;;;;6.60;2.90;;;;;;;-150.27;100.00;61272.81;5233087;28;20060;-75
2023/03/29 01:41:42;;;;;;;6.33;2.33;;;;;;;-150.27;100.00;61272.81;5209343;28;20029;-76
2023/03/29 01:44:24;;;;;;;5.53;3.13;;;;;;;-150.27;100.00;61272.81;5242465;28;20030;-76
2023/03/29 01:47:11;;;;;;;7.57;3.47;;;;;;;-150.27;100.00;61272.81;5233093;28;20481;-76
2023/03/29 01:49:59;;;;;;;4.30;2.20;;;;;;;-150.27;100.00;61272.81;5232652;28;20029;-76
2023/03/29 01:53:04;;;;;;;4.60;2.10;;;;;;;-150.27;100.00;61272.81;5232757;28;20029;-75
2023/03/29 01:55:39;;;;;;;4.73;1.90;;;;;;;-150.27;100.00;61272.81;5221695;28;20053;-75
2023/03/29 01:58:14;;;;;;;5.27;2.37;;;;;;;-150.27;100.00;61272.81;5235652;28;20473;-75
2023/03/29 02:00:46;;;;;;;4.93;2.37;;;;;;;-150.27;100.00;61272.81;5236808;28;20026;-75
2023/03/29 02:03:20;;;;;;;3.17;2.10;;;;;;;-150.27;100.00;61272.81;5236453;28;20044;-75
2023/03/29 02:05:55;;;;;;;5.00;2.65;;;;;;;-150.27;100.00;61272.81;5236394;28;20499;-75
2023/03/29 02:08:28;;;;;;;7.93;2.78;;;;;;;-150.27;100.00;61272.81;5236331;28;20029;-75
2023/03/29 02:11:00;;;;;;;9.03;2.33;;;;;;;-150.27;100.00;61272.81;5236602;28;20021;-76
2023/03/29 02:13:31;;;;;;;4.90;2.60;;;;;;;-150.27;100.00;61272.81;5234872;28;20049;-76
2023/03/29 02:16:07;;;;;;;6.03;2.30;;;;;;;-150.27;100.00;61272.81;5236229;28;20072;-75
2023/03/29 02:18:41;;;;;;;4.17;2.47;;;;;;;-150.27;100.00;61272.81;5228411;28;20033;-75
2023/03/29 02:21:22;;;;;;;4.88;2.25;;;;;;;-150.27;100.00;61272.81;5227705;28;20036;-75
2023/03/29 02:23:56;;;;;;;4.53;2.40;;;;;;;-150.27;100.00;61272.81;5236512;28;20369;-76
2023/03/29 02:26:28;;;;;;;14.23;3.03;;;;;;;-150.27;100.00;61272.81;5236120;28;20044;-75
2023/03/29 02:28:59;;;;;;;5.07;2.33;;;;;;;-150.27;100.00;61272.81;5235996;28;20025;-75
2023/03/29 02:31:37;;;;;;;6.03;3.03;;;;;;;-150.27;100.00;61272.81;5235753;28;20468;-76
2023/03/29 02:34:23;;;;;;;6.60;3.00;;;;;;;-150.27;100.00;61272.81;5236238;28;20029;-76
2023/03/29 02:36:59;;;;;;;5.00;2.63;;;;;;;-150.27;100.00;61272.81;5235294;28;20022;-75
2023/03/29 02:39:32;;;;;;;4.93;2.27;;;;;;;-150.27;100.00;61272.81;5236364;28;20071;-76
2023/03/29 02:42:05;;;;;;;4.83;2.40;;;;;;;-150.27;100.00;61272.81;5235608;28;20029;-76
2023/03/29 02:44:40;;;;;;;7.80;2.20;;;;;;;-150.27;100.00;61272.81;5235933;28;20060;-76
2023/03/29 02:47:18;;;;;;;6.40;2.20;;;;;;;-150.27;100.00;61272.81;5235488;28;20045;-76
2023/03/29 02:49:50;;;;;;;6.63;2.40;;;;;;;-150.27;100.00;61272.81;5235137;28;20084;-76
2023/03/29 02:52:25;;;;;;;9.40;2.43;;;;;;;-150.27;100.00;61272.81;5235172;28;20101;-76
2023/03/29 02:54:59;;;;;;;7.07;2.77;;;;;;;-150.27;100.00;61272.81;5235586;28;20167;-76
2023/03/29 02:57:31;;;;;;;7.18;2.28;;;;;;;-150.27;100.00;61272.81;5235305;28;20039;-76
2023/03/29 03:00:04;;;;;;;5.77;2.10;;;;;;;-150.27;100.00;61272.81;5235846;28;20032;-76
2023/03/29 03:02:36;;;;;;;4.67;2.50;;;;;;;-150.27;100.00;61272.81;5233940;28;20362;-75
2023/03/29 03:05:08;;;;;;;3.67;1.97;;;;;;;-150.27;100.00;61272.81;5224398;28;20073;-75
2023/03/29 03:07:41;;;;;;;6.03;2.20;;;;;;;-150.27;100.00;61272.81;5215657;28;20856;-75
2023/03/29 03:10:12;;;;;;;5.00;1.60;;;;;;;-150.27;100.00;61272.81;5229081;28;20032;-75
2023/03/29 03:12:43;;;;;;;7.17;2.33;;;;;;;-150.27;100.00;61272.81;5235845;28;20025;-74
2023/03/29 03:15:15;;;;;;;5.73;1.93;;;;;;;-150.27;100.00;61272.81;5235168;28;20052;-75
2023/03/29 03:17:48;;;;;;;4.73;2.23;;;;;;;-150.27;100.00;61272.81;5235511;28;20040;-75
2023/03/29 03:20:22;;;;;;;4.53;2.27;;;;;;;-150.27;100.00;61272.81;5234642;28;20393;-74
2023/03/29 03:22:56;;;;;;;4.75;2.03;;;;;;;-150.27;100.00;61272.81;5217017;28;20057;-75
2023/03/29 03:25:28;;;;;;;3.60;2.28;;;;;;;-150.27;100.00;61272.81;5215211;28;20853;-75
2023/03/29 03:27:59;;;;;;;5.47;2.43;;;;;;;-150.27;100.00;61272.81;5214045;28;20030;-75
2023/03/29 03:30:32;;;;;;;7.47;2.53;;;;;;;-150.27;100.00;61272.81;5214885;28;20029;-75
2023/03/29 03:33:03;;;;;;;4.67;2.30;;;;;;;-150.27;100.00;61272.81;5214801;28;20682;-75
2023/03/29 03:35:35;;;;;;;4.17;1.80;;;;;;;-150.27;100.00;61272.81;5213552;28;20036;-75
2023/03/29 03:38:30;;;;;;;4.90;2.30;;;;;;;-150.27;100.00;61272.81;5213497;28;20039;-75
2023/03/29 03:41:05;;;;;;;6.10;2.03;;;;;;;-150.27;100.00;61272.81;5214086;28;20037;-75
2023/03/29 03:43:37;;;;;;;5.20;2.47;;;;;;;-150.27;100.00;61272.81;5214853;28;20030;-75
2023/03/29 03:46:08;;;;;;;6.93;3.13;;;;;;;-150.27;100.00;61272.81;5213988;28;20025;-75
2023/03/29 03:48:39;;;;;;;4.53;2.00;;;;;;;-150.27;100.00;61272.81;5214611;28;20068;-75
2023/03/29 03:51:11;;;;;;;5.33;2.53;;;;;;;-150.27;100.00;61272.81;5213126;28;20112;-75
2023/03/29 03:53:43;;;;;;;5.47;2.47;;;;;;;-150.27;100.00;61272.81;5214504;28;20025;-74
2023/03/29 03:56:15;;;;;;;3.70;2.03;;;;;;;-150.27;100.00;61272.81;5213226;28;20026;-75
2023/03/29 03:58:46;;;;;;;3.43;2.40;;;;;;;-150.27;100.00;61272.81;5227710;28;20112;-75
2023/03/29 04:01:18;;;;;;;4.47;2.17;;;;;;;-150.27;100.00;61272.81;5224844;28;20076;-74
2023/03/29 04:03:49;;;;;;;5.43;1.73;;;;;;;-150.27;100.00;61272.81;5218431;28;20400;-74
2023/03/29 04:06:21;;;;;;;6.60;2.70;;;;;;;-150.27;100.00;61272.81;5235484;28;20049;-74
2023/03/29 04:08:52;;;;;;;8.00;2.67;;;;;;;-150.27;100.00;61272.81;5235538;28;20109;-74
2023/03/29 04:11:24;;;;;;;6.63;2.60;;;;;;;-150.27;100.00;61272.81;5230382;28;20120;-74
2023/03/29 04:13:56;;;;;;;5.47;2.30;;;;;;;-150.27;100.00;61272.81;5235911;28;20042;-74
2023/03/29 04:16:28;;;;;;;7.10;2.20;;;;;;;-150.27;100.00;61272.81;5234438;28;20548;-74
2023/03/29 04:18:59;;;;;;;8.00;3.10;;;;;;;-150.27;100.00;61272.81;5234155;28;20036;-74
2023/03/29 04:21:32;;;;;;;5.43;2.80;;;;;;;-150.27;100.00;61272.81;5234028;28;20099;-75
2023/03/29 04:24:04;;;;;;;5.27;2.47;;;;;;;-150.27;100.00;61272.81;5233639;28;20052;-74
2023/03/29 04:26:35;;;;;;;6.33;2.40;;;;;;;-150.27;100.00;61272.81;5234396;28;20049;-75
2023/03/29 04:29:07;;;;;;;6.13;2.10;;;;;;;-150.27;100.00;61272.81;5234051;28;20025;-74
2023/03/29 04:31:39;;;;;;;9.60;2.70;;;;;;;-150.27;100.00;61272.81;5233731;28;20141;-74
2023/03/29 04:34:10;;;;;;;7.13;2.53;;;;;;;-150.27;100.00;61272.81;5228823;28;20100;-74
2023/03/29 04:36:42;;;;;;;7.47;2.30;;;;;;;-150.27;100.00;61272.81;5212162;28;20033;-75
2023/03/29 04:39:13;;;;;;;6.13;2.63;;;;;;;-150.27;100.00;61272.81;5226788;28;20032;-75
2023/03/29 04:41:46;;;;;;;5.03;2.47;;;;;;;-150.27;100.00;61272.81;5234262;28;20060;-75
2023/03/29 04:44:17;;;;;;;6.90;2.73;;;;;;;-150.27;100.00;61272.81;5233508;28;20036;-75
2023/03/29 04:46:48;;;;;;;7.87;3.00;;;;;;;-150.27;100.00;61272.81;5234239;28;20479;-76
2023/03/29 04:49:21;;;;;;;5.73;2.93;;;;;;;-150.27;100.00;61272.81;5232883;28;20052;-76
2023/03/29 04:51:53;;;;;;;4.40;2.20;;;;;;;-150.27;100.00;61272.81;5216656;28;20585;-75
2023/03/29 04:54:24;;;;;;;5.93;3.00;;;;;;;-150.27;100.00;61272.81;5212757;28;20030;-75
2023/03/29 04:56:55;;;;;;;13.17;3.20;;;;;;;-150.27;100.00;61272.81;5211874;28;20037;-76
2023/03/29 04:59:27;;;;;;;10.10;3.50;;;;;;;-150.27;100.00;61272.81;5212796;28;20040;-74
2023/03/29 05:01:59;;;;;;;5.33;2.73;;;;;;;-150.27;100.00;61272.81;5212740;28;20030;-74
2023/03/29 05:04:31;;;;;;;5.93;2.83;;;;;;;-150.27;100.00;61272.81;5212192;28;20030;-74
2023/03/29 05:07:03;;;;;;;9.97;2.97;;;;;;;-150.27;100.00;61272.81;5213042;28;20037;-74
2023/03/29 05:09:34;;;;;;;6.87;2.93;;;;;;;-150.27;100.00;61272.81;5212673;28;20026;-74
2023/03/29 05:12:06;;;;;;;6.77;2.60;;;;;;;-150.27;100.00;61272.81;5212836;28;20113;-74
2023/03/29 05:14:37;;;;;;;6.90;2.80;;;;;;;-150.27;100.00;61272.81;5212643;28;20536;-74
2023/03/29 05:17:09;;;;;;;13.17;3.73;;;;;;;-150.27;100.00;61272.81;5212814;28;20022;-74
2023/03/29 05:19:42;;;;;;;6.70;2.50;;;;;;;-150.27;100.00;61272.81;5212318;28;20056;-74
2023/03/29 05:22:14;;;;;;;4.50;2.47;;;;;;;-150.27;100.00;61272.81;5212484;28;20096;-75
2023/03/29 05:24:45;;;;;;;5.40;2.90;;;;;;;-150.27;100.00;61272.81;5212573;28;20029;-74
2023/03/29 05:27:16;;;;;;;4.83;2.80;;;;;;;-150.27;100.00;61272.81;5220150;28;20039;-74
2023/03/29 05:29:48;;;;;;;5.60;3.30;;;;;;;-150.27;100.00;61272.81;5233159;28;20458;-75
2023/03/29 05:32:21;;;;;;;7.40;3.30;;;;;;;-150.27;100.00;61272.81;5232343;28;20037;-75
2023/03/29 05:35:12;;;;;;;7.87;2.77;;;;;;;-150.27;100.00;61272.81;5231824;28;20106;-75
2023/03/29 05:37:46;;;;;;;6.00;3.67;;;;;;;-150.27;100.00;61272.81;5232240;28;20021;-74
2023/03/29 05:40:17;;;;;;;6.75;3.10;;;;;;;-150.27;100.00;61272.81;5232074;28;20029;-75
2023/03/29 05:42:48;;;;;;;7.33;3.10;;;;;;;-150.27;100.00;61272.81;5233229;28;20025;-75
2023/03/29 05:45:21;;;;;;;6.40;3.20;;;;;;;-150.27;100.00;61272.81;5231876;28;20013;-75
2023/03/29 05:47:53;;;;;;;7.60;3.57;;;;;;;-150.27;100.00;61272.81;5232844;28;20068;-74
2023/03/29 05:50:24;;;;;;;6.70;3.03;;;;;;;-150.27;100.00;61272.81;5220062;28;20029;-74
2023/03/29 05:52:56;;;;;;;7.57;3.40;;;;;;;-150.27;100.00;61272.81;5232242;28;20028;-74
2023/03/29 05:55:28;;;;;;;8.90;3.30;;;;;;;-150.27;100.00;61272.81;5221961;28;20108;-77
2023/03/29 05:57:59;;;;;;;8.33;3.33;;;;;;;-150.27;100.00;61272.81;5231562;28;20025;-78
2023/03/29 06:00:36;;;;;;;6.13;3.20;;;;;;;-150.27;100.00;61272.81;5233895;28;20108;-76
2023/03/29 06:03:16;;;;;;;6.73;3.10;;;;;;;-150.27;100.00;61272.81;5232721;28;20392;-76
2023/03/29 06:05:53;;;;;;;6.77;3.33;;;;;;;-150.27;100.00;61272.81;5231436;28;20025;-76
2023/03/29 06:08:26;;;;;;;6.23;2.90;;;;;;;-150.27;100.00;61272.81;5231903;28;20025;-76
2023/03/29 06:10:59;;;;;;;8.50;3.33;;;;;;;-150.27;100.00;61272.81;5231888;28;20129;-76
2023/03/29 06:13:33;;;;;;;6.37;3.67;;;;;;;-150.27;100.00;61272.81;5232598;28;20129;-76
2023/03/29 06:16:05;;;;;;;6.75;2.75;;;;;;;-150.27;100.00;61272.81;5231636;28;20473;-74
2023/03/29 06:18:39;;;;;;;4.93;3.10;;;;;;;-150.27;100.00;61272.81;5232641;28;20025;-75
2023/03/29 06:21:11;;;;;;;7.57;3.38;;;;;;;-150.27;100.00;61272.81;5230283;28;20113;-75
2023/03/29 06:23:42;;;;;;;11.70;4.03;;;;;;;-150.27;100.00;61272.81;5229651;28;20639;-75
2023/03/29 06:26:15;;;;;;;8.97;3.40;;;;;;;-150.27;100.00;61272.81;5230888;28;20108;-74
2023/03/29 06:28:47;;;;;;;8.30;2.70;;;;;;;-150.27;100.00;61272.81;5231996;28;20053;-75
2023/03/29 06:31:19;;;;;;;5.93;3.63;;;;;;;-150.27;100.00;61272.81;5231246;28;20061;-74
2023/03/29 06:33:51;;;;;;;7.43;3.70;;;;;;;-150.27;100.00;61272.81;5230435;28;20025;-75
2023/03/29 06:36:22;;;;;;;10.00;3.10;;;;;;;-150.27;100.00;61272.81;5231196;28;20052;-75
2023/03/29 06:38:54;;;;;;;9.17;3.47;;;;;;;-150.27;100.00;61272.81;5231755;28;20033;-75
2023/03/29 06:41:25;;;;;;;7.50;3.47;;;;;;;-150.27;100.00;61272.81;5233514;28;20033;-74
2023/03/29 06:43:57;;;;;;;7.47;3.37;;;;;;;-150.27;100.00;61272.81;5235111;28;20160;-74
2023/03/29 06:46:28;;;;;;;7.67;3.90;;;;;;;-150.27;100.00;61272.81;5235960;28;20018;-74
2023/03/29 06:49:00;;;;;;;6.27;3.07;;;;;;;-150.27;100.00;61272.81;5234843;28;20112;-74
2023/03/29 06:51:31;;;;;;;7.87;3.87;;;;;;;-150.27;100.00;61272.81;5236032;28;20143;-74
2023/03/29 06:54:03;;;;;;;7.63;3.20;;;;;;;-150.27;100.00;61272.81;5234950;28;20045;-75
2023/03/29 06:56:34;;;;;;;6.17;3.80;;;;;;;-150.27;100.00;61272.81;5235393;28;20025;-74
2023/03/29 06:59:05;;;;;;;8.50;3.57;;;;;;;-150.27;100.00;61272.81;5235388;28;20816;-75
2023/03/29 07:01:36;;;;;;;7.77;3.23;;;;;;;-150.27;100.00;61272.81;5234653;28;20123;-75
2023/03/29 07:04:08;;;;;;;6.53;4.30;;;;;;;-150.27;100.00;61272.81;5229833;28;20087;-75
2023/03/29 07:06:47;;;;;;;8.30;3.80;;;;;;;-150.27;100.00;61272.81;5234714;28;20032;-75
2023/03/29 07:09:19;;;;;;;9.83;3.80;;;;;;;-150.27;100.00;61272.81;5234808;28;20044;-76
2023/03/29 07:11:50;;;;;;;6.13;3.20;;;;;;;-150.27;100.00;61272.81;5229870;28;20053;-76
2023/03/29 07:14:25;;;;;;;8.23;3.97;;;;;;;-150.27;100.00;61272.81;5223731;28;20072;-76
2023/03/29 07:16:57;;;;;;;8.60;3.20;;;;;;;-150.27;100.00;61272.81;5232741;28;20037;-74
2023/03/29 07:19:29;;;;;;;7.77;4.23;;;;;;;-150.27;100.00;61272.81;5225905;28;20421;-75
2023/03/29 07:22:01;;;;;;;9.43;4.10;;;;;;;-150.27;100.00;61272.81;5231381;28;20029;-75
2023/03/29 07:24:32;;;;;;;9.17;3.73;;;;;;;-150.27;100.00;61272.81;5234546;28;20164;-76
2023/03/29 07:27:04;;;;;;;5.40;3.67;;;;;;;-150.27;100.00;61272.81;5234858;28;20111;-76
2023/03/29 07:29:36;;;;;;;7.07;3.13;;;;;;;-150.27;100.00;61272.81;5224762;28;20033;-76
2023/03/29 07:32:07;;;;;;;8.13;3.90;;;;;;;-150.27;100.00;61272.81;5233443;28;20055;-75
2023/03/29 07:35:25;;;;;;;8.63;4.43;;;;;;;-150.27;100.00;61272.81;5213347;28;20026;-76
2023/03/29 07:37:57;;;;;;;6.53;3.60;;;;;;;-150.27;100.00;61272.81;5230090;28;20032;-76
2023/03/29 07:40:29;;;;;;;11.00;4.37;;;;;;;-150.27;100.00;61272.81;5233892;28;20032;-76
2023/03/29 07:43:06;;;;;;;7.83;3.73;;;;;;;-150.27;100.00;61272.81;5234610;28;20373;-76
2023/03/29 07:45:41;;;;;;;8.40;3.50;;;;;;;-150.27;100.00;61272.81;5233663;28;20527;-76
2023/03/29 07:48:12;;;;;;;6.90;3.63;;;;;;;-150.27;100.00;61272.81;5233833;28;20029;-76
2023/03/29 07:50:44;;;;;;;10.93;4.03;;;;;;;-150.27;100.00;61272.81;5213149;28;20843;-77
2023/03/29 07:53:16;;;;;;;8.23;4.27;;;;;;;-150.27;100.00;61272.81;5224195;28;20029;-75
2023/03/29 07:55:48;;;;;;;8.70;4.17;;;;;;;-150.27;100.00;61272.81;5233450;28;20027;-76
2023/03/29 07:58:20;;;;;;;7.67;3.70;;;;;;;-150.27;100.00;61272.81;5233158;28;20036;-76
2023/03/29 08:00:52;;;;;;;8.63;4.00;;;;;;;-150.27;100.00;61272.81;5232530;28;20469;-76
2023/03/29 08:03:23;;;;;;;7.47;3.97;;;;;;;-150.27;100.00;61272.81;5231846;28;20112;-75
2023/03/29 08:05:54;;;;;;;10.13;4.30;;;;;;;-150.27;100.00;61272.81;5232963;28;20036;-76
2023/03/29 08:08:26;;;;;;;7.80;4.47;;;;;;;-150.27;100.00;61272.81;5233383;28;20087;-76
2023/03/29 08:10:58;;;;;;;9.17;4.13;;;;;;;-150.27;100.00;61272.81;5234655;28;20456;-76
2023/03/29 08:13:29;;;;;;;8.37;4.47;;;;;;;-150.27;100.00;61272.81;5234621;28;20104;-76
2023/03/29 08:16:00;;;;;;;9.17;4.50;;;;;;;-150.27;100.00;61272.81;5234166;28;20026;-76
2023/03/29 08:18:32;;;;;;;9.13;4.57;;;;;;;-150.27;100.00;61272.81;5234519;28;20026;-77
2023/03/29 08:21:04;;;;;;;10.30;5.13;;;;;;;-150.27;100.00;61272.81;5232023;28;20060;-76
2023/03/29 08:23:36;;;;;;;9.43;5.53;;;;;;;-150.27;100.00;61272.81;5234244;28;20022;-77
2023/03/29 08:26:08;;;;;;;13.37;5.20;;;;;;;-150.27;100.00;61272.81;5234394;28;20029;-77
2023/03/29 08:28:40;;;;;;;6.97;4.40;;;;;;;-150.27;100.00;61272.81;5234077;28;20660;-77
2023/03/29 08:31:11;;;;;;;8.47;5.20;;;;;;;-150.27;100.00;61272.81;5232418;28;20038;-77
2023/03/29 08:33:43;;;;;;;9.17;4.93;;;;;;;-150.27;100.00;61272.81;5233346;28;20021;-76
2023/03/29 08:36:14;;;;;;;9.03;5.23;;;;;;;-150.27;100.00;61272.81;5232827;28;20025;-75
2023/03/29 08:38:46;;;;;;;10.37;5.30;;;;;;;-150.27;100.00;61272.81;5217245;28;20060;-76
2023/03/29 08:41:44;;;;;;;9.53;5.07;;;;;;;-150.27;100.00;61272.81;5218002;28;20025;-76
2023/03/29 08:44:42;;;;;;;8.27;4.27;;;;;;;-150.27;100.00;61272.81;5234118;28;20033;-75
2023/03/29 08:47:51;;;;;;;9.83;4.37;;;;;;;-150.27;100.00;61272.81;5233591;28;20021;-75
2023/03/29 08:50:33;;;;;;;10.53;4.93;;;;;;;-150.27;100.00;61272.81;5233442;28;20026;-75
2023/03/29 08:53:11;;;;;;;11.57;5.17;;;;;;;-150.27;100.00;61272.81;5234123;28;20359;-75
2023/03/29 08:55:46;;;;;;;10.77;5.00;;;;;;;-150.27;100.00;61272.81;5234501;28;20071;-75
2023/03/29 08:58:23;;;;;;;15.10;5.77;;;;;;;-150.27;100.00;61272.81;5234293;28;20095;-75
2023/03/29 09:00:58;;;;;;;10.87;5.40;;;;;;;-150.27;100.00;61272.81;5234775;28;20025;-76
2023/03/29 09:03:55;;;;;;;10.43;5.37;;;;;;;-150.27;100.00;61272.81;5235372;28;20048;-77
2023/03/29 09:06:27;;;;;;;13.37;5.53;;;;;;;-150.27;100.00;61272.81;5218454;28;20376;-78
2023/03/29 09:09:02;;;;;;;12.07;5.97;;;;;;;-150.27;100.00;61272.81;5230033;28;20029;-77
2023/03/29 09:12:08;;;;;;;8.47;5.10;;;;;;;-150.27;100.00;61272.81;5227610;28;20030;-76
2023/03/29 09:15:05;;;;;;;9.43;4.60;;;;;;;-150.27;100.00;61272.81;5226474;28;20058;-76
2023/03/29 09:17:47;;;;;;;9.97;4.70;;;;;;;-150.27;100.00;61272.81;5242028;28;20022;-77
2023/03/29 09:20:22;;;;;;;9.20;5.10;;;;;;;-150.27;100.00;61272.81;5251748;28;20041;-77
2023/03/29 09:23:21;;;;;;;11.13;5.20;;;;;;;-150.27;100.00;61272.81;5249699;28;20522;-76
2023/03/29 09:26:11;;;;;;;9.47;4.80;;;;;;;-150.27;100.00;61272.81;5229296;28;20132;-76
2023/03/29 09:28:48;;;;;;;16.23;6.50;;;;;;;-150.27;100.00;61272.81;5224769;28;20037;-77
2023/03/29 09:31:21;;;;;;;15.73;5.40;;;;;;;-150.27;100.00;61272.81;5212133;28;20046;-76
2023/03/29 09:34:07;;;;;;;8.93;5.47;;;;;;;-150.27;100.00;61272.81;5212184;28;20030;-75
2023/03/29 09:36:51;;;;;;;11.07;5.30;;;;;;;-150.27;100.00;61272.81;5212155;28;20072;-76
2023/03/29 09:39:26;;;;;;;9.57;4.43;;;;;;;-150.27;100.00;61272.81;5212234;28;20029;-76
2023/03/29 09:42:03;;;;;;;15.37;5.47;;;;;;;-150.27;100.00;61272.81;5228103;28;20033;-75
2023/03/29 09:44:54;;;;;;;10.20;4.90;;;;;;;-150.27;100.00;61272.81;5231302;28;20487;-75
2023/03/29 09:47:31;;;;;;;11.13;5.23;;;;;;;-150.27;100.00;61272.81;5232544;28;20040;-75
2023/03/29 09:50:15;;;;;;;8.93;5.27;;;;;;;-150.27;100.00;61272.81;5209378;28;20057;-75
2023/03/29 09:52:48;;;;;;;10.93;5.20;;;;;;;-150.27;100.00;61272.81;5225840;28;20037;-75
2023/03/29 09:55:26;;;;;;;11.57;5.40;;;;;;;-150.27;100.00;61272.81;5229735;28;20025;-75
2023/03/29 09:58:00;;;;;;;11.47;6.20;;;;;;;-150.27;100.00;61272.81;5224789;28;20042;-75
2023/03/29 10:00:32;;;;;;;11.70;5.67;;;;;;;-150.27;100.00;61272.81;5229646;28;20037;-75
2023/03/29 10:03:03;;;;;;;11.50;5.20;;;;;;;-150.27;100.00;61272.81;5208055;28;20042;-75
2023/03/29 10:05:36;;;;;;;10.63;5.50;;;;;;;-150.27;100.00;61272.81;5225324;28;20033;-75
2023/03/29 10:08:39;;;;;;;9.63;5.97;;;;;;;-150.27;100.00;61272.81;5229970;28;20034;-75
2023/03/29 10:11:33;;;;;;;10.10;6.50;;;;;;;-150.27;100.00;61272.81;5230079;28;20485;-75
2023/03/29 10:14:12;;;;;;;10.63;5.33;;;;;;;-150.27;100.00;61272.81;5209206;28;20046;-73
2023/03/29 10:16:44;;;;;;;13.00;5.77;;;;;;;-150.27;100.00;61272.81;5225744;28;20033;-74
2023/03/29 10:19:34;;;;;;;9.40;5.50;;;;;;;-150.27;100.00;61272.81;5232857;28;20143;-74
2023/03/29 10:22:15;;;;;;;11.57;5.43;;;;;;;-150.27;100.00;61272.81;5233859;28;20022;-74
2023/03/29 10:24:48;;;;;;;8.80;5.33;;;;;;;-150.27;100.00;61272.81;5233124;28;20936;-76
2023/03/29 10:27:23;;;;;;;9.38;4.68;;;;;;;-150.27;100.00;61272.81;5233827;28;20105;-74
2023/03/29 10:29:57;;;;;;;7.78;5.25;;;;;;;-150.27;100.00;61272.81;5235825;28;20033;-75
2023/03/29 10:32:28;;;;;;;12.27;5.90;;;;;;;-150.27;100.00;61272.81;5234414;28;20037;-75
2023/03/29 10:35:21;;;;;;;9.37;5.77;;;;;;;-150.27;100.00;61272.81;5233607;28;20033;-74
2023/03/29 10:37:57;;;;;;;9.43;5.73;;;;;;;-150.27;100.00;61272.81;5235120;28;20061;-75
2023/03/29 10:40:34;;;;;;;10.93;4.83;;;;;;;-150.27;100.00;61272.81;5235372;28;20532;-75
2023/03/29 10:43:44;;;;;;;11.53;5.27;;;;;;;-150.27;100.00;61272.81;5234171;28;20580;-74
2023/03/29 10:46:30;;;;;;;8.60;4.43;;;;;;;-150.27;100.00;61272.81;5215496;28;20041;-74
2023/03/29 10:49:08;;;;;;;7.80;5.27;;;;;;;-150.27;100.00;61272.81;5231680;28;20477;-74
2023/03/29 10:51:43;;;;;;;9.63;5.63;;;;;;;-150.27;100.00;61272.81;5232932;28;20801;-74
2023/03/29 10:54:20;;;;;;;9.13;5.00;;;;;;;-150.27;100.00;61272.81;5232816;28;20432;-74
2023/03/29 10:56:57;;;;;;;11.70;5.10;;;;;;;-150.27;100.00;61272.81;5232566;28;20048;-74
2023/03/29 10:59:31;;;;;;;10.47;5.23;;;;;;;-150.27;100.00;61272.81;5232967;28;20025;-74
2023/03/29 11:02:35;;;;;;;9.60;5.22;;;;;;;-150.27;100.00;61272.81;5232734;28;20409;-74
2023/03/29 11:05:26;;;;;;;9.82;4.78;;;;;;;-150.27;100.00;61272.81;5231869;28;20083;-74
2023/03/29 11:08:10;;;;;;;5.67;3.80;;;;;;;-150.27;100.00;61272.81;5232494;28;20033;-74
2023/03/29 11:11:12;;;;;;;9.03;4.70;;;;;;;-150.27;100.00;61272.81;5231648;28;20029;-74
2023/03/29 11:13:46;;;;;;;8.43;3.93;;;;;;;-150.27;100.00;61272.81;5246274;28;20364;-74
2023/03/29 11:16:34;;;;;;;7.73;4.37;;;;;;;-150.27;100.00;61272.81;5230577;28;20049;-74
2023/03/29 11:19:11;;;;;;;9.00;5.17;;;;;;;-150.27;100.00;61272.81;5231901;28;20025;-74
2023/03/29 11:22:01;;;;;;;9.63;4.70;;;;;;;-150.27;100.00;61272.81;5233118;28;20385;-75
2023/03/29 11:24:48;;;;;;;7.70;4.50;;;;;;;-150.27;100.00;61272.81;5212160;28;20500;-75
2023/03/29 11:27:57;;;;;;;8.90;5.03;;;;;;;-150.27;100.00;61272.81;5211054;28;20025;-75
2023/03/29 11:30:43;;;;;;;6.50;4.43;;;;;;;-150.27;100.00;61272.81;5211410;28;20022;-75
2023/03/29 11:33:44;;;;;;;8.30;4.17;;;;;;;-150.27;100.00;61272.81;5211155;28;20553;-75
2023/03/29 11:36:36;;;;;;;12.27;4.37;;;;;;;-150.27;100.00;61272.81;5211329;28;20602;-75
2023/03/29 11:39:14;;;;;;;9.10;5.60;;;;;;;-150.27;100.00;61272.81;5211134;28;20026;-75
2023/03/29 11:41:51;;;;;;;10.70;4.90;;;;;;;-150.27;100.00;61272.81;5211960;28;20026;-74
2023/03/29 11:44:29;;;;;;;15.27;5.13;;;;;;;-150.27;100.00;61272.81;5211818;28;20508;-74
2023/03/29 11:47:30;;;;;;;11.77;5.07;;;;;;;-150.27;100.00;61272.81;5242880;28;20306;-74
2023/03/29 11:50:24;;;;;;;10.53;4.90;;;;;;;-150.27;100.00;61272.81;5209795;28;20079;-74